Time;durP1;ratioP1;P1;durP2;ratioP2;P2;SDS_P1;SDS_P2;PMS_P1;PMS_P2;Temp;Humidity;BMP_temperature;BMP_pressure;BME280_temperature;BME280_humidity;BME280_pressure;Samples;Min_cycle;Max_cycle;Signal;HPM_P1;HPM_P2
2023/09/15 00:00:43;;;;;;;1.35;0.77;;;17.20;44.90;;;;;;4975529;28;20239;-51
2023/09/15 00:03:09;;;;;;;1.05;0.57;;;17.20;44.90;;;;;;4975655;28;20199;-50
2023/09/15 00:05:35;;;;;;;1.00;0.43;;;17.20;44.80;;;;;;4975732;28;20592;-51
2023/09/15 00:08:04;;;;;;;1.30;0.82;;;17.20;44.90;;;;;;4975780;28;20415;-50
2023/09/15 00:10:38;;;;;;;1.20;0.50;;;17.20;44.90;;;;;;4975595;28;20210;-51
2023/09/15 00:13:03;;;;;;;2.00;1.05;;;17.20;44.80;;;;;;4975331;28;20266;-51
2023/09/15 00:15:29;;;;;;;0.90;0.30;;;17.20;45.60;;;;;;4975285;28;20310;-51
2023/09/15 00:17:56;;;;;;;1.23;0.63;;;17.20;45.10;;;;;;4974739;28;20263;-50
2023/09/15 00:20:24;;;;;;;1.20;0.60;;;17.20;45.00;;;;;;4975461;28;20203;-50
2023/09/15 00:22:51;;;;;;;1.00;0.43;;;17.20;45.00;;;;;;4975219;28;20255;-51
2023/09/15 00:25:19;;;;;;;1.63;0.40;;;17.10;45.10;;;;;;4975123;28;20650;-50
2023/09/15 00:27:50;;;;;;;0.90;0.30;;;17.10;45.00;;;;;;4975314;28;20188;-50
2023/09/15 00:30:17;;;;;;;1.00;0.43;;;17.10;45.10;;;;;;4973949;28;20180;-50
2023/09/15 00:32:43;;;;;;;0.90;0.43;;;17.20;45.00;;;;;;4974965;28;20176;-51
2023/09/15 00:35:09;;;;;;;1.90;0.55;;;17.10;45.00;;;;;;4975131;28;20535;-50
2023/09/15 00:37:35;;;;;;;1.00;0.40;;;17.10;44.80;;;;;;4974979;28;20756;-50
2023/09/15 00:40:01;;;;;;;1.10;0.40;;;17.10;44.90;;;;;;4974939;28;20179;-51
2023/09/15 00:42:26;;;;;;;1.52;0.68;;;17.10;44.90;;;;;;4974658;28;20168;-50
2023/09/15 00:44:52;;;;;;;1.03;0.50;;;17.10;45.00;;;;;;4975170;28;20234;-50
2023/09/15 00:47:18;;;;;;;1.00;0.47;;;17.10;44.80;;;;;;4975062;28;20570;-50
2023/09/15 00:49:45;;;;;;;0.90;0.20;;;17.10;45.00;;;;;;4974968;28;20180;-50
2023/09/15 00:52:11;;;;;;;0.90;0.32;;;17.00;44.90;;;;;;4974710;28;20176;-51
2023/09/15 00:54:39;;;;;;;0.90;0.38;;;17.00;45.00;;;;;;4974737;28;20183;-51
2023/09/15 00:57:05;;;;;;;1.10;0.60;;;17.00;44.90;;;;;;4974563;28;20594;-50
2023/09/15 00:59:32;;;;;;;0.90;0.30;;;17.00;44.90;;;;;;4974650;28;20172;-50
2023/09/15 01:01:59;;;;;;;1.00;0.40;;;16.90;44.90;;;;;;4974294;28;20211;-50
2023/09/15 01:04:27;;;;;;;2.28;0.70;;;17.00;44.80;;;;;;4974476;28;20184;-50
2023/09/15 01:06:55;;;;;;;1.20;0.82;;;16.90;44.70;;;;;;4974449;28;20690;-51
2023/09/15 01:09:22;;;;;;;1.00;0.40;;;16.90;44.80;;;;;;4974427;28;20184;-51
2023/09/15 01:11:50;;;;;;;1.20;0.70;;;16.80;44.70;;;;;;4972808;28;20186;-51
2023/09/15 01:14:16;;;;;;;1.00;0.32;;;16.80;44.70;;;;;;4974600;28;20208;-51
2023/09/15 01:17:10;;;;;;;2.00;0.40;;;16.70;44.70;;;;;;4974420;28;20360;-51
2023/09/15 01:19:50;;;;;;;1.00;0.50;;;16.70;44.70;;;;;;4974363;28;20539;-51
2023/09/15 01:22:30;;;;;;;0.98;0.30;;;16.60;44.70;;;;;;4974008;28;20689;-50
2023/09/15 01:25:36;;;;;;;0.90;0.30;;;16.60;44.80;;;;;;4974127;28;20172;-51
2023/09/15 01:28:19;;;;;;;0.90;0.30;;;16.60;44.70;;;;;;4971983;28;20687;-51
2023/09/15 01:30:49;;;;;;;1.10;0.50;;;16.50;44.60;;;;;;4974185;28;20180;-50
2023/09/15 01:33:18;;;;;;;1.00;0.45;;;16.50;44.80;;;;;;4974109;28;20172;-51
2023/09/15 01:35:44;;;;;;;1.00;0.40;;;16.50;44.80;;;;;;4974093;28;20291;-51
2023/09/15 01:38:10;;;;;;;1.30;0.50;;;16.40;44.70;;;;;;4974000;28;20179;-50
2023/09/15 01:40:37;;;;;;;0.90;0.30;;;16.40;44.60;;;;;;4973791;28;20497;-51
2023/09/15 01:43:03;;;;;;;1.58;0.75;;;16.50;44.60;;;;;;4973595;28;20184;-50
2023/09/15 01:45:30;;;;;;;2.08;0.35;;;16.40;44.40;;;;;;4973957;28;20229;-51
2023/09/15 01:47:57;;;;;;;1.30;0.80;;;16.40;45.10;;;;;;4974024;28;20200;-50
2023/09/15 01:50:24;;;;;;;1.00;0.60;;;16.40;44.50;;;;;;4973732;28;20537;-51
2023/09/15 01:52:50;;;;;;;1.35;0.68;;;16.30;44.40;;;;;;4973643;28;20176;-51
2023/09/15 01:55:18;;;;;;;1.15;0.43;;;16.30;44.50;;;;;;4973711;28;20191;-50
2023/09/15 01:57:43;;;;;;;1.02;0.50;;;16.30;44.60;;;;;;4973803;28;20266;-50
2023/09/15 02:00:10;;;;;;;1.00;0.40;;;16.20;44.50;;;;;;4973650;28;20627;-51
2023/09/15 02:02:36;;;;;;;1.00;0.30;;;16.20;44.40;;;;;;4973486;28;20179;-49
2023/09/15 02:05:02;;;;;;;0.90;0.40;;;16.20;44.50;;;;;;4973823;28;20551;-51
2023/09/15 02:07:28;;;;;;;1.10;0.60;;;16.10;44.50;;;;;;4973490;28;20246;-51
2023/09/15 02:09:54;;;;;;;1.00;0.50;;;16.10;44.70;;;;;;4973384;28;20634;-49
2023/09/15 02:12:19;;;;;;;1.00;0.50;;;16.10;44.80;;;;;;4973227;28;20182;-48
2023/09/15 02:14:45;;;;;;;1.10;0.50;;;16.10;44.60;;;;;;4973441;28;20234;-49
2023/09/15 02:17:15;;;;;;;0.90;0.20;;;16.20;44.70;;;;;;4973310;28;20922;-47
2023/09/15 02:19:42;;;;;;;1.13;0.82;;;16.20;44.70;;;;;;4973413;28;20239;-47
2023/09/15 02:22:08;;;;;;;0.90;0.30;;;16.20;44.70;;;;;;4972988;28;20215;-49
2023/09/15 02:24:34;;;;;;;0.90;0.30;;;16.20;44.40;;;;;;4973138;28;20769;-48
2023/09/15 02:27:00;;;;;;;1.27;0.63;;;16.10;44.50;;;;;;4973190;28;20220;-49
2023/09/15 02:29:26;;;;;;;1.25;0.82;;;16.10;44.40;;;;;;4973398;28;20415;-48
2023/09/15 02:31:52;;;;;;;1.00;0.40;;;16.10;44.60;;;;;;4973231;28;20183;-48
2023/09/15 02:34:17;;;;;;;0.90;0.40;;;16.10;44.50;;;;;;4973242;28;20820;-47
2023/09/15 02:36:44;;;;;;;1.20;0.47;;;16.00;44.50;;;;;;4973145;28;20482;-47
2023/09/15 02:39:09;;;;;;;1.00;0.52;;;16.00;44.50;;;;;;4973056;28;20601;-48
2023/09/15 02:41:36;;;;;;;1.00;0.50;;;16.00;44.40;;;;;;4975853;28;20200;-49
2023/09/15 02:44:02;;;;;;;1.45;0.93;;;16.00;44.50;;;;;;4977340;28;20172;-49
2023/09/15 02:46:27;;;;;;;2.13;0.97;;;16.00;44.40;;;;;;4977065;28;20194;-48
2023/09/15 02:48:54;;;;;;;1.23;0.53;;;15.90;44.40;;;;;;4977093;28;20180;-48
2023/09/15 02:51:19;;;;;;;1.10;0.75;;;15.90;44.50;;;;;;4976835;28;20586;-50
2023/09/15 02:53:45;;;;;;;1.10;0.70;;;15.80;44.40;;;;;;4976761;28;20272;-50
2023/09/15 02:56:11;;;;;;;1.30;0.80;;;15.80;44.40;;;;;;4976789;28;20199;-50
2023/09/15 02:58:37;;;;;;;1.23;0.70;;;15.80;44.50;;;;;;4976821;28;20176;-50
2023/09/15 03:01:13;;;;;;;1.40;0.97;;;15.80;44.50;;;;;;4976716;28;20254;-49
2023/09/15 03:03:39;;;;;;;1.10;0.73;;;15.80;44.60;;;;;;4976757;28;20913;-50
2023/09/15 03:06:06;;;;;;;1.23;1.03;;;15.70;44.70;;;;;;4976687;28;20263;-50
2023/09/15 03:08:33;;;;;;;1.05;0.55;;;15.80;44.80;;;;;;4976693;28;20414;-50
2023/09/15 03:10:59;;;;;;;0.98;0.47;;;15.70;44.80;;;;;;4976421;28;20659;-51
2023/09/15 03:13:25;;;;;;;1.03;0.63;;;15.70;44.60;;;;;;4975279;28;20180;-50
2023/09/15 03:15:51;;;;;;;1.20;0.80;;;15.80;44.60;;;;;;4976544;28;20948;-50
2023/09/15 03:18:17;;;;;;;1.33;0.87;;;15.80;44.50;;;;;;4976507;28;20183;-51
2023/09/15 03:20:43;;;;;;;1.20;0.57;;;15.80;44.40;;;;;;4976221;28;20455;-50
2023/09/15 03:23:09;;;;;;;2.33;0.60;;;15.80;44.40;;;;;;4976596;28;20415;-50
2023/09/15 03:25:34;;;;;;;1.10;0.87;;;15.80;44.50;;;;;;4976228;28;20481;-51
2023/09/15 03:28:01;;;;;;;1.00;0.43;;;15.80;44.40;;;;;;4976512;28;20430;-50
2023/09/15 03:30:27;;;;;;;1.20;0.50;;;15.70;44.30;;;;;;4976322;28;20168;-50
2023/09/15 03:32:53;;;;;;;0.90;0.40;;;15.70;44.30;;;;;;4976157;28;20279;-51
2023/09/15 03:35:20;;;;;;;1.00;0.50;;;15.70;44.30;;;;;;4976157;28;20530;-50
2023/09/15 03:37:46;;;;;;;0.93;0.40;;;15.60;44.30;;;;;;4976183;28;20204;-51
2023/09/15 03:40:12;;;;;;;1.00;0.55;;;15.60;44.30;;;;;;4976184;28;20200;-51
2023/09/15 03:42:38;;;;;;;1.00;0.65;;;15.60;44.30;;;;;;4975878;28;20183;-50
2023/09/15 03:45:08;;;;;;;1.00;0.47;;;15.60;44.20;;;;;;4976019;28;20642;-50
2023/09/15 03:47:34;;;;;;;1.00;0.50;;;15.60;44.30;;;;;;4975999;28;20215;-50
2023/09/15 03:50:01;;;;;;;1.40;0.60;;;15.50;44.40;;;;;;4975850;28;20179;-51
2023/09/15 03:52:27;;;;;;;1.15;0.75;;;15.50;44.40;;;;;;4974347;28;20180;-51
2023/09/15 03:54:53;;;;;;;1.00;0.60;;;15.50;44.30;;;;;;4975950;28;20215;-50
2023/09/15 03:57:18;;;;;;;1.13;0.77;;;15.50;44.30;;;;;;4975944;28;20196;-51
2023/09/15 03:59:44;;;;;;;1.10;0.80;;;15.50;44.30;;;;;;4975841;28;20180;-51
2023/09/15 04:02:10;;;;;;;1.00;0.40;;;15.50;44.40;;;;;;4974225;28;20204;-50
2023/09/15 04:04:35;;;;;;;0.90;0.40;;;15.40;44.30;;;;;;4975571;28;20172;-50
2023/09/15 04:07:01;;;;;;;2.13;1.07;;;15.40;44.40;;;;;;4975537;28;20542;-51
2023/09/15 04:09:27;;;;;;;1.00;0.70;;;15.40;44.40;;;;;;4975623;28;20168;-50
2023/09/15 04:11:54;;;;;;;1.00;0.50;;;15.40;44.30;;;;;;4975288;28;20180;-50
2023/09/15 04:14:20;;;;;;;0.90;0.30;;;15.30;44.50;;;;;;4975578;28;20259;-50
2023/09/15 04:16:46;;;;;;;1.00;0.40;;;15.30;44.50;;;;;;4975419;28;20650;-50
2023/09/15 04:19:12;;;;;;;1.00;0.50;;;15.30;44.40;;;;;;4975468;28;20407;-50
2023/09/15 04:21:38;;;;;;;1.00;0.40;;;15.30;44.40;;;;;;4975267;28;20204;-51
2023/09/15 04:24:06;;;;;;;1.10;0.65;;;15.30;44.50;;;;;;4975433;28;20315;-48
2023/09/15 04:26:31;;;;;;;1.20;0.85;;;15.30;44.60;;;;;;4975090;28;20579;-51
2023/09/15 04:29:00;;;;;;;1.20;0.70;;;15.30;44.70;;;;;;4975255;28;20635;-51
2023/09/15 04:31:26;;;;;;;1.20;0.93;;;15.30;44.70;;;;;;4975005;28;20177;-51
2023/09/15 04:33:52;;;;;;;1.00;0.40;;;15.30;44.70;;;;;;4975062;28;20172;-48
2023/09/15 04:36:18;;;;;;;0.90;0.30;;;15.20;44.80;;;;;;4975023;28;20431;-49
2023/09/15 04:38:44;;;;;;;3.70;0.63;;;15.20;44.80;;;;;;4973828;28;20740;-50
2023/09/15 04:41:09;;;;;;;1.00;0.30;;;15.30;45.10;;;;;;4974828;28;20203;-51
2023/09/15 04:43:35;;;;;;;1.00;0.50;;;15.20;44.90;;;;;;4974925;28;20176;-49
2023/09/15 04:46:01;;;;;;;0.90;0.30;;;15.20;45.10;;;;;;4974849;28;20689;-52
2023/09/15 04:48:27;;;;;;;0.90;0.30;;;15.30;45.10;;;;;;4974889;28;20485;-50
2023/09/15 04:50:53;;;;;;;0.80;0.20;;;15.30;45.10;;;;;;4974661;28;20554;-49
2023/09/15 04:53:20;;;;;;;0.83;0.30;;;15.30;45.40;;;;;;4974801;28;20244;-49
2023/09/15 04:55:48;;;;;;;0.98;0.40;;;15.30;45.20;;;;;;4974621;28;20188;-47
2023/09/15 04:58:14;;;;;;;0.82;0.20;;;15.30;45.10;;;;;;4973588;28;20203;-49
2023/09/15 05:00:40;;;;;;;5.67;0.90;;;15.40;45.10;;;;;;4974622;28;20230;-46
2023/09/15 05:03:08;;;;;;;3.70;0.57;;;15.40;45.20;;;;;;4974072;28;20538;-49
2023/09/15 05:05:34;;;;;;;0.90;0.30;;;15.40;45.20;;;;;;4974411;28;20180;-50
2023/09/15 05:08:00;;;;;;;1.00;0.52;;;15.50;45.30;;;;;;4973253;28;20172;-46
2023/09/15 05:10:26;;;;;;;0.90;0.45;;;15.50;45.30;;;;;;4974478;28;20199;-47
2023/09/15 05:12:51;;;;;;;1.97;1.60;;;15.50;45.40;;;;;;4974268;28;20647;-50
2023/09/15 05:15:17;;;;;;;0.90;0.30;;;15.60;45.40;;;;;;4974469;28;20176;-51
2023/09/15 05:17:44;;;;;;;0.90;0.30;;;15.60;45.50;;;;;;4975155;28;20203;-46
2023/09/15 05:20:11;;;;;;;0.90;0.38;;;15.60;45.50;;;;;;4974980;28;20542;-48
2023/09/15 05:22:36;;;;;;;1.08;0.82;;;15.60;45.40;;;;;;4974620;28;20171;-46
2023/09/15 05:25:04;;;;;;;0.90;0.40;;;15.70;45.50;;;;;;4974351;28;20209;-46
2023/09/15 05:27:31;;;;;;;3.85;0.73;;;15.70;45.60;;;;;;4973124;28;20494;-50
2023/09/15 05:29:58;;;;;;;1.27;0.40;;;15.70;45.70;;;;;;4974028;28;20184;-49
2023/09/15 05:32:24;;;;;;;1.00;0.40;;;15.80;45.60;;;;;;4974101;28;20251;-48
2023/09/15 05:34:49;;;;;;;1.20;0.70;;;15.80;45.70;;;;;;4974273;28;20268;-50
2023/09/15 05:37:15;;;;;;;1.10;0.93;;;15.80;45.80;;;;;;4974186;28;20991;-47
2023/09/15 05:39:41;;;;;;;0.90;0.30;;;15.90;46.00;;;;;;4974213;28;20164;-47
2023/09/15 05:42:07;;;;;;;0.93;0.40;;;16.00;45.80;;;;;;4973756;28;20266;-50
2023/09/15 05:44:33;;;;;;;0.90;0.30;;;16.10;46.10;;;;;;4974027;28;20404;-50
2023/09/15 05:47:00;;;;;;;0.90;0.50;;;16.20;46.20;;;;;;4973790;28;20206;-47
2023/09/15 05:49:25;;;;;;;1.00;0.55;;;16.30;46.10;;;;;;4973854;28;20408;-48
2023/09/15 05:51:51;;;;;;;0.90;0.37;;;16.30;46.00;;;;;;4973417;28;20258;-50
2023/09/15 05:54:17;;;;;;;1.20;0.77;;;16.40;46.00;;;;;;4972540;28;20183;-49
2023/09/15 05:56:43;;;;;;;0.90;0.20;;;16.40;46.40;;;;;;4956521;28;20435;-47
2023/09/15 05:59:09;;;;;;;1.00;0.50;;;16.50;46.30;;;;;;4973665;28;20898;-47
2023/09/15 06:01:35;;;;;;;1.27;0.53;;;16.50;46.50;;;;;;4972294;28;20200;-50
2023/09/15 06:04:01;;;;;;;0.90;0.30;;;16.50;46.70;;;;;;4973833;28;20408;-48
2023/09/15 06:06:27;;;;;;;1.00;0.57;;;16.60;46.40;;;;;;4973757;28;20477;-48
2023/09/15 06:08:52;;;;;;;0.90;0.40;;;16.70;46.60;;;;;;4973607;28;20406;-50
2023/09/15 06:11:18;;;;;;;1.00;0.43;;;16.80;46.40;;;;;;4973351;28;20419;-49
2023/09/15 06:13:45;;;;;;;0.90;0.27;;;16.90;46.50;;;;;;4973445;28;20179;-47
2023/09/15 06:16:12;;;;;;;1.00;0.57;;;16.90;46.30;;;;;;4972638;28;20223;-48
2023/09/15 06:18:38;;;;;;;1.20;0.77;;;16.90;46.50;;;;;;4973476;28;20179;-49
2023/09/15 06:21:05;;;;;;;0.90;0.20;;;17.00;46.20;;;;;;4973145;28;20700;-46
2023/09/15 06:23:31;;;;;;;0.98;0.43;;;17.00;46.20;;;;;;4973418;28;20766;-48
2023/09/15 06:25:57;;;;;;;0.90;0.30;;;17.10;46.40;;;;;;4973303;28;20228;-51
2023/09/15 06:28:23;;;;;;;0.90;0.30;;;17.20;46.40;;;;;;4973171;28;20199;-48
2023/09/15 06:30:48;;;;;;;1.23;0.63;;;17.20;46.60;;;;;;4973205;28;20921;-47
2023/09/15 06:33:14;;;;;;;1.00;0.50;;;17.20;46.50;;;;;;4973283;28;20222;-49
2023/09/15 06:35:40;;;;;;;0.90;0.20;;;17.20;46.50;;;;;;4973146;28;20566;-47
2023/09/15 06:38:06;;;;;;;1.00;0.50;;;17.30;46.50;;;;;;4972049;28;20183;-48
2023/09/15 06:40:35;;;;;;;1.00;0.30;;;17.30;46.50;;;;;;4973036;28;20459;-49
2023/09/15 06:43:04;;;;;;;1.20;0.73;;;17.40;46.60;;;;;;4972904;28;20195;-49
2023/09/15 06:45:31;;;;;;;0.90;0.35;;;17.50;46.30;;;;;;4972983;28;20710;-47
2023/09/15 06:48:01;;;;;;;1.00;0.30;;;17.60;46.30;;;;;;4973052;28;20188;-48
2023/09/15 06:50:27;;;;;;;1.00;0.70;;;17.60;46.30;;;;;;4973102;28;20199;-47
2023/09/15 06:52:53;;;;;;;1.00;0.43;;;17.70;46.70;;;;;;4972802;28;20281;-48
2023/09/15 06:55:19;;;;;;;1.17;0.65;;;17.80;46.40;;;;;;4972894;28;20415;-48
2023/09/15 06:57:45;;;;;;;1.10;0.55;;;17.90;46.30;;;;;;4972899;28;20202;-46
2023/09/15 07:00:11;;;;;;;1.10;0.60;;;18.00;46.20;;;;;;4972820;28;20259;-49
2023/09/15 07:02:37;;;;;;;1.08;0.50;;;18.00;46.20;;;;;;4972788;28;20192;-47
2023/09/15 07:05:04;;;;;;;1.03;0.70;;;18.10;45.90;;;;;;4972900;28;20243;-49
2023/09/15 07:07:30;;;;;;;2.55;1.20;;;18.10;46.00;;;;;;4972994;28;20195;-49
2023/09/15 07:09:56;;;;;;;1.10;0.50;;;18.20;45.70;;;;;;4971722;28;20519;-49
2023/09/15 07:12:22;;;;;;;0.90;0.30;;;18.30;46.00;;;;;;4971448;28;20172;-48
2023/09/15 07:14:49;;;;;;;1.00;0.47;;;18.40;46.10;;;;;;4972782;28;20207;-50
2023/09/15 07:17:16;;;;;;;1.00;0.40;;;18.50;45.70;;;;;;4972753;28;20204;-48
2023/09/15 07:19:44;;;;;;;1.00;0.40;;;18.60;45.60;;;;;;4972843;28;20173;-49
2023/09/15 07:22:10;;;;;;;1.00;0.30;;;18.60;45.60;;;;;;4972449;28;20203;-50
2023/09/15 07:24:36;;;;;;;1.00;0.40;;;18.70;45.70;;;;;;4972659;28;20213;-46
2023/09/15 07:27:03;;;;;;;1.07;0.53;;;18.70;45.50;;;;;;4974627;28;20238;-50
2023/09/15 07:29:29;;;;;;;1.10;0.55;;;18.80;45.80;;;;;;4976365;28;20457;-50
2023/09/15 07:31:57;;;;;;;1.00;0.40;;;18.90;45.70;;;;;;4976180;28;20188;-46
2023/09/15 07:34:23;;;;;;;1.00;0.40;;;19.10;45.90;;;;;;4976385;28;20641;-50
2023/09/15 07:36:51;;;;;;;1.10;0.63;;;19.20;45.00;;;;;;4976195;28;20655;-48
2023/09/15 07:39:17;;;;;;;1.20;0.50;;;19.30;45.40;;;;;;4976158;28;20184;-48
2023/09/15 07:41:45;;;;;;;1.17;0.60;;;19.40;44.60;;;;;;4975799;28;20211;-49
2023/09/15 07:44:14;;;;;;;1.00;0.30;;;19.50;44.70;;;;;;4976129;28;20187;-49
2023/09/15 07:46:40;;;;;;;1.15;0.40;;;19.60;44.70;;;;;;4976000;28;20287;-48
2023/09/15 07:49:10;;;;;;;1.00;0.40;;;19.70;45.10;;;;;;4976033;28;20172;-50
2023/09/15 07:51:35;;;;;;;1.05;0.57;;;19.80;44.80;;;;;;4975694;28;20199;-47
2023/09/15 07:54:01;;;;;;;1.00;0.40;;;20.00;44.30;;;;;;4975915;28;20618;-47
2023/09/15 07:56:27;;;;;;;1.00;0.40;;;20.10;44.30;;;;;;4975832;28;20274;-50
2023/09/15 07:58:53;;;;;;;1.67;1.10;;;20.20;43.70;;;;;;4975842;28;20458;-49
2023/09/15 08:01:19;;;;;;;0.90;0.28;;;20.30;42.80;;;;;;4975500;28;20200;-49
2023/09/15 08:03:45;;;;;;;1.00;0.50;;;20.30;43.60;;;;;;4975665;28;20203;-50
2023/09/15 08:06:14;;;;;;;1.00;0.40;;;20.40;42.70;;;;;;4975675;28;20662;-48
2023/09/15 08:08:42;;;;;;;1.00;0.50;;;20.50;43.60;;;;;;4975828;28;20179;-50
2023/09/15 08:11:08;;;;;;;0.90;0.22;;;20.70;43.90;;;;;;4975532;28;20188;-47
2023/09/15 08:13:34;;;;;;;1.10;0.67;;;20.90;43.20;;;;;;4975484;28;20646;-47
2023/09/15 08:15:59;;;;;;;1.70;0.80;;;21.00;42.60;;;;;;4975392;28;20535;-50
2023/09/15 08:18:26;;;;;;;1.20;0.40;;;21.20;42.90;;;;;;4974066;28;20176;-48
2023/09/15 08:20:52;;;;;;;1.35;0.68;;;21.30;42.50;;;;;;4975207;28;20191;-50
2023/09/15 08:23:18;;;;;;;1.37;0.87;;;21.50;42.80;;;;;;4975520;28;20750;-49
2023/09/15 08:25:44;;;;;;;1.08;0.50;;;21.60;42.60;;;;;;4975103;28;20682;-47
2023/09/15 08:28:10;;;;;;;1.00;0.40;;;21.70;41.80;;;;;;4975299;28;20203;-47
2023/09/15 08:30:36;;;;;;;1.00;0.43;;;21.80;42.00;;;;;;4975095;28;20208;-49
2023/09/15 08:33:05;;;;;;;1.10;0.40;;;21.90;41.10;;;;;;4975143;28;20199;-47
2023/09/15 08:35:32;;;;;;;1.00;0.50;;;21.90;40.20;;;;;;4975076;28;20469;-50
2023/09/15 08:37:58;;;;;;;1.15;0.70;;;21.80;41.30;;;;;;4974637;28;20176;-50
2023/09/15 08:40:25;;;;;;;1.00;0.30;;;22.00;41.40;;;;;;4975198;28;20200;-48
2023/09/15 08:42:50;;;;;;;1.13;0.60;;;22.10;41.40;;;;;;4974853;28;20204;-50
2023/09/15 08:45:19;;;;;;;1.30;0.73;;;22.20;41.50;;;;;;4974968;28;20254;-47
2023/09/15 08:47:50;;;;;;;1.00;0.40;;;22.30;40.60;;;;;;4974886;28;20646;-50
2023/09/15 08:50:17;;;;;;;1.03;0.43;;;22.30;40.70;;;;;;4975082;28;20206;-46
2023/09/15 08:52:43;;;;;;;1.27;0.93;;;22.50;40.50;;;;;;4974573;28;20859;-50
2023/09/15 08:55:09;;;;;;;1.50;0.65;;;22.60;40.00;;;;;;4974803;28;20736;-47
2023/09/15 08:57:36;;;;;;;1.10;0.53;;;22.60;39.90;;;;;;4974713;28;20282;-49
2023/09/15 09:00:03;;;;;;;1.10;0.60;;;22.70;39.70;;;;;;4974635;28;20960;-49
2023/09/15 09:02:29;;;;;;;1.00;0.50;;;22.80;39.60;;;;;;4974383;28;20817;-47
2023/09/15 09:04:54;;;;;;;1.10;0.50;;;22.90;40.00;;;;;;4974576;28;20842;-50
2023/09/15 09:07:24;;;;;;;1.13;0.50;;;23.00;39.00;;;;;;4974732;28;20196;-48
2023/09/15 09:09:52;;;;;;;1.10;0.50;;;23.10;39.60;;;;;;4974534;28;20721;-48
2023/09/15 09:12:18;;;;;;;1.17;0.80;;;23.20;39.30;;;;;;4974369;28;20494;-51
2023/09/15 09:14:44;;;;;;;1.23;0.70;;;23.30;38.70;;;;;;4974400;28;20850;-48
2023/09/15 09:17:11;;;;;;;1.10;0.40;;;23.40;38.60;;;;;;4974235;28;20192;-49
2023/09/15 09:19:38;;;;;;;1.00;0.30;;;23.50;38.20;;;;;;4974297;28;20419;-49
2023/09/15 09:22:07;;;;;;;2.40;0.73;;;23.70;37.40;;;;;;4973989;28;20540;-49
2023/09/15 09:24:36;;;;;;;1.40;1.10;;;23.80;38.00;;;;;;4974187;28;20921;-47
2023/09/15 09:27:11;;;;;;;1.00;0.40;;;23.90;38.70;;;;;;4974063;28;20821;-47
2023/09/15 09:29:37;;;;;;;1.20;0.90;;;24.00;35.90;;;;;;4974359;28;20397;-51
2023/09/15 09:32:04;;;;;;;1.00;0.40;;;24.20;36.80;;;;;;4974184;28;20792;-48
2023/09/15 09:34:30;;;;;;;1.00;0.40;;;24.30;38.00;;;;;;4974264;28;20416;-48
2023/09/15 09:36:56;;;;;;;1.00;0.40;;;24.50;36.50;;;;;;4973982;28;20462;-50
2023/09/15 09:39:22;;;;;;;1.20;0.60;;;24.50;36.00;;;;;;4974032;28;20510;-47
2023/09/15 09:41:48;;;;;;;1.00;0.40;;;24.60;35.90;;;;;;4973659;28;20451;-49
2023/09/15 09:44:14;;;;;;;1.00;0.40;;;24.70;36.30;;;;;;4973753;28;20164;-50
2023/09/15 09:46:40;;;;;;;2.90;0.53;;;24.80;34.70;;;;;;4973758;28;20427;-46
2023/09/15 09:49:07;;;;;;;1.20;0.60;;;24.80;34.50;;;;;;4973948;28;20415;-48
2023/09/15 09:51:36;;;;;;;1.00;0.40;;;24.80;35.40;;;;;;4973566;28;20439;-50
2023/09/15 09:54:03;;;;;;;1.10;0.40;;;24.90;35.50;;;;;;4973767;28;20411;-49
2023/09/15 09:56:32;;;;;;;1.20;0.63;;;25.00;35.40;;;;;;4973549;28;20570;-51
2023/09/15 09:59:10;;;;;;;1.10;0.40;;;25.10;34.50;;;;;;4973805;28;20482;-49
2023/09/15 10:01:37;;;;;;;1.00;0.40;;;25.20;34.70;;;;;;4973475;28;20558;-50
2023/09/15 10:04:05;;;;;;;1.20;0.70;;;25.20;32.40;;;;;;4973684;28;20485;-46
2023/09/15 10:06:36;;;;;;;1.10;0.40;;;25.20;34.40;;;;;;4973349;28;20794;-50
2023/09/15 10:09:05;;;;;;;1.10;0.47;;;25.20;32.70;;;;;;4973598;28;20411;-50
2023/09/15 10:11:34;;;;;;;1.20;0.50;;;25.30;32.80;;;;;;4973175;28;20506;-46
2023/09/15 10:14:03;;;;;;;1.00;0.40;;;25.30;32.70;;;;;;4973311;28;20415;-50
2023/09/15 10:16:34;;;;;;;1.00;0.37;;;25.40;32.50;;;;;;4973441;28;20930;-49
2023/09/15 10:19:03;;;;;;;0.90;0.30;;;25.40;32.80;;;;;;4973478;28;20414;-47
2023/09/15 10:21:32;;;;;;;1.10;0.60;;;25.40;31.40;;;;;;4973040;28;20474;-50
2023/09/15 10:24:08;;;;;;;1.20;0.53;;;25.50;32.50;;;;;;4973212;28;20415;-48
2023/09/15 10:26:38;;;;;;;1.10;0.30;;;25.60;32.70;;;;;;4973044;28;20455;-49
2023/09/15 10:29:04;;;;;;;1.20;0.83;;;25.70;32.10;;;;;;4973337;28;20438;-49
2023/09/15 10:31:34;;;;;;;1.07;0.43;;;25.70;30.30;;;;;;4973061;28;20423;-46
2023/09/15 10:34:02;;;;;;;0.90;0.30;;;25.60;30.20;;;;;;4973233;28;20403;-50
2023/09/15 10:36:31;;;;;;;1.77;0.80;;;25.70;32.00;;;;;;4973048;28;20431;-50
2023/09/15 10:38:58;;;;;;;1.00;0.40;;;25.70;31.40;;;;;;4973187;28;20760;-47
2023/09/15 10:41:26;;;;;;;1.13;0.70;;;25.70;31.00;;;;;;4972897;28;20459;-50
2023/09/15 10:43:52;;;;;;;1.20;0.70;;;25.70;31.90;;;;;;4973207;28;20411;-46
2023/09/15 10:46:18;;;;;;;1.00;0.40;;;25.80;31.00;;;;;;4973114;28;20431;-50
2023/09/15 10:48:48;;;;;;;1.00;0.40;;;25.80;31.00;;;;;;4972958;28;20430;-48
2023/09/15 10:51:17;;;;;;;1.37;0.93;;;25.90;31.90;;;;;;4972820;28;20399;-50
2023/09/15 10:53:51;;;;;;;1.00;0.30;;;26.10;32.70;;;;;;4973034;28;20478;-49
2023/09/15 10:56:18;;;;;;;1.10;0.40;;;26.20;31.20;;;;;;4973008;28;20530;-49
2023/09/15 10:58:48;;;;;;;1.00;0.40;;;26.20;30.90;;;;;;4973019;28;20413;-50
2023/09/15 11:01:15;;;;;;;1.00;0.40;;;26.30;31.40;;;;;;4973359;28;20454;-48
2023/09/15 11:03:42;;;;;;;1.40;1.20;;;26.40;30.30;;;;;;4976821;28;20434;-50
2023/09/15 11:06:13;;;;;;;1.10;0.50;;;26.40;32.00;;;;;;4976868;28;21007;-49
2023/09/15 11:08:39;;;;;;;1.53;0.80;;;26.60;29.80;;;;;;4976812;28;20403;-47
2023/09/15 11:11:11;;;;;;;1.13;0.60;;;26.60;30.40;;;;;;4976512;28;20419;-50
2023/09/15 11:13:39;;;;;;;1.07;0.47;;;26.50;29.70;;;;;;4976523;28;20411;-47
2023/09/15 11:16:06;;;;;;;3.73;1.07;;;26.60;30.80;;;;;;4976747;28;20427;-48
2023/09/15 11:18:37;;;;;;;1.00;0.30;;;26.60;30.70;;;;;;4976492;28;20418;-51
2023/09/15 11:21:05;;;;;;;1.10;0.40;;;26.70;29.00;;;;;;4976483;28;20770;-49
2023/09/15 11:23:30;;;;;;;1.00;0.43;;;26.60;29.70;;;;;;4976431;28;20411;-49
2023/09/15 11:26:03;;;;;;;1.23;0.50;;;26.60;30.10;;;;;;4976257;28;20886;-49
2023/09/15 11:28:36;;;;;;;1.10;0.47;;;26.60;30.30;;;;;;4976334;28;20168;-47
2023/09/15 11:31:05;;;;;;;1.00;0.40;;;26.70;29.70;;;;;;4976300;28;20411;-51
2023/09/15 11:33:31;;;;;;;1.73;0.60;;;26.70;29.00;;;;;;4976238;28;20407;-47
2023/09/15 11:35:57;;;;;;;1.73;1.40;;;26.80;29.30;;;;;;4976270;28;20446;-48
2023/09/15 11:38:24;;;;;;;1.10;0.60;;;26.90;29.80;;;;;;4976508;28;20454;-50
2023/09/15 11:40:51;;;;;;;1.10;0.50;;;27.00;29.20;;;;;;4975709;28;20458;-47
2023/09/15 11:43:21;;;;;;;1.00;0.50;;;27.00;30.00;;;;;;4976087;28;20411;-48
2023/09/15 11:45:48;;;;;;;1.00;0.50;;;27.00;28.80;;;;;;4976191;28;20447;-51
2023/09/15 11:48:14;;;;;;;1.00;0.50;;;26.90;28.70;;;;;;4976053;28;20769;-47
2023/09/15 11:50:41;;;;;;;1.00;0.30;;;26.90;29.80;;;;;;4975867;28;20421;-49
2023/09/15 11:53:07;;;;;;;1.00;0.40;;;27.00;30.40;;;;;;4975757;28;20418;-50
2023/09/15 11:55:33;;;;;;;1.00;0.30;;;27.10;29.70;;;;;;4975663;28;20917;-51
2023/09/15 11:57:59;;;;;;;1.00;0.30;;;27.20;30.00;;;;;;4975830;28;20407;-48
2023/09/15 12:00:30;;;;;;;1.37;0.87;;;27.10;27.70;;;;;;4975758;28;20458;-48
2023/09/15 12:02:56;;;;;;;1.97;0.50;;;26.90;28.60;;;;;;4975583;28;20415;-49
2023/09/15 12:05:22;;;;;;;1.10;0.50;;;26.80;29.50;;;;;;4975645;28;20414;-48
2023/09/15 12:07:49;;;;;;;1.20;0.57;;;26.70;29.10;;;;;;4975519;28;20411;-50
2023/09/15 12:10:17;;;;;;;1.40;0.63;;;26.60;28.90;;;;;;4975515;28;20407;-47
2023/09/15 12:12:44;;;;;;;2.40;1.13;;;26.50;29.90;;;;;;4974517;28;20450;-50
2023/09/15 12:15:14;;;;;;;1.20;0.60;;;26.40;30.10;;;;;;4975532;28;20945;-48
2023/09/15 12:17:42;;;;;;;1.30;0.50;;;26.40;29.20;;;;;;4975385;28;20423;-48
2023/09/15 12:20:08;;;;;;;1.00;0.30;;;26.40;28.30;;;;;;4975418;28;20404;-49
2023/09/15 12:22:38;;;;;;;1.10;0.60;;;26.30;29.30;;;;;;4975090;28;20450;-48
2023/09/15 12:25:05;;;;;;;1.00;0.30;;;26.20;29.00;;;;;;4975410;28;20399;-47
2023/09/15 12:27:32;;;;;;;1.10;0.40;;;26.20;30.00;;;;;;4975355;28;20477;-51
2023/09/15 12:30:02;;;;;;;1.20;0.60;;;26.20;29.70;;;;;;4975423;28;20411;-50
2023/09/15 12:32:31;;;;;;;1.00;0.30;;;26.20;30.00;;;;;;4974998;28;20454;-48
2023/09/15 12:34:57;;;;;;;3.70;0.93;;;26.20;30.20;;;;;;4975140;28;20846;-49
2023/09/15 12:37:27;;;;;;;1.00;0.30;;;26.30;29.10;;;;;;4975064;28;20941;-50
2023/09/15 12:39:53;;;;;;;1.00;0.40;;;26.40;30.90;;;;;;4975052;28;20743;-50
2023/09/15 12:42:19;;;;;;;1.00;0.30;;;26.50;30.30;;;;;;4974843;28;20461;-51
2023/09/15 12:44:45;;;;;;;1.10;0.53;;;26.60;29.90;;;;;;4974931;28;20662;-48
2023/09/15 12:47:11;;;;;;;1.03;0.40;;;26.70;29.30;;;;;;4974965;28;20602;-50